Time;durP1;ratioP1;P1;durP2;ratioP2;P2;SDS_P1;SDS_P2;PMS_P1;PMS_P2;Temp;Humidity;BMP_temperature;BMP_pressure;BME280_temperature;BME280_humidity;BME280_pressure;Samples;Min_cycle;Max_cycle;Signal;HPM_P1;HPM_P2
2023/09/06 00:01:40;;;;;;;;;;;;;;;;;;5113049;28;1914;-75
2023/09/06 00:04:05;;;;;;;;;;;;;;;;;;5110357;28;1465;-75
2023/09/06 00:06:31;;;;;;;;;;;;;;;;;;5112768;28;902;-76
2023/09/06 00:08:56;;;;;;;;;;;;;;;;;;5111145;28;1186;-76
2023/09/06 00:11:21;;;;;;;;;;;;;;;;;;5112606;28;1018;-75
2023/09/06 00:13:47;;;;;;;;;;;;;;;;;;5112058;28;900;-76
2023/09/06 00:16:12;;;;;;;;;;;;;;;;;;5111514;28;827;-76
2023/09/06 00:18:38;;;;;;;;;;;;;;;;;;5111537;28;840;-76
2023/09/06 00:21:05;;;;;;;;;;;;;;;;;;5109958;28;1016;-75
2023/09/06 00:23:31;;;;;;;;;;;;;;;;;;5112129;28;1913;-76
2023/09/06 00:25:56;;;;;;;;;;;;;;;;;;5111863;28;901;-75
2023/09/06 00:28:23;;;;;;;;;;;;;;;;;;5111028;28;904;-76
2023/09/06 00:30:49;;;;;;;;;;;;;;;;;;5111780;28;876;-76
2023/09/06 00:33:14;;;;;;;;;;;;;;;;;;5111488;28;864;-76
2023/09/06 00:35:39;;;;;;;;;;;;;;;;;;5109643;28;1154;-76
2023/09/06 00:38:05;;;;;;;;;;;;;;;;;;5109425;28;923;-76
2023/09/06 00:40:31;;;;;;;;;;;;;;;;;;5111413;28;907;-76
2023/09/06 00:42:59;;;;;;;;;;;;;;;;;;5110995;28;1910;-76
2023/09/06 00:45:27;;;;;;;;;;;;;;;;;;5110897;28;1443;-76
2023/09/06 00:47:55;;;;;;;;;;;;;;;;;;5115408;28;1445;-76
2023/09/06 00:50:20;;;;;;;;;;;;;;;;;;5114439;28;840;-76
2023/09/06 00:52:46;;;;;;;;;;;;;;;;;;5114426;28;915;-76
2023/09/06 00:55:12;;;;;;;;;;;;;;;;;;5113191;28;899;-76
2023/09/06 00:57:38;;;;;;;;;;;;;;;;;;5113127;28;1109;-76
2023/09/06 01:00:08;;;;;;;;;;;;;;;;;;5113669;28;916;-75
2023/09/06 01:02:33;;;;;;;;;;;;;;;;;;5096919;28;2035;-75
2023/09/06 01:04:58;;;;;;;;;;;;;;;;;;5114714;27;856;-75
2023/09/06 01:07:25;;;;;;;;;;;;;;;;;;5114475;28;899;-76
2023/09/06 01:09:51;;;;;;;;;;;;;;;;;;5114659;28;938;-75
2023/09/06 01:12:16;;;;;;;;;;;;;;;;;;5113872;28;1026;-75
2023/09/06 01:14:41;;;;;;;;;;;;;;;;;;5113349;28;888;-75
2023/09/06 01:17:10;;;;;;;;;;;;;;;;;;5114117;28;1063;-75
2023/09/06 01:19:37;;;;;;;;;;;;;;;;;;5113741;28;832;-75
2023/09/06 01:22:02;;;;;;;;;;;;;;;;;;5110549;28;1959;-75
2023/09/06 01:24:29;;;;;;;;;;;;;;;;;;5093867;28;1210;-75
2023/09/06 01:26:54;;;;;;;;;;;;;;;;;;5093612;28;1237;-75
2023/09/06 01:29:19;;;;;;;;;;;;;;;;;;5089118;28;1179;-75
2023/09/06 01:31:45;;;;;;;;;;;;;;;;;;5094285;28;931;-76
2023/09/06 01:34:10;;;;;;;;;;;;;;;;;;5092315;28;1002;-74
2023/09/06 01:36:36;;;;;;;;;;;;;;;;;;5092763;28;1345;-74
2023/09/06 01:39:02;;;;;;;;;;;;;;;;;;5092208;28;1298;-74
2023/09/06 01:41:27;;;;;;;;;;;;;;;;;;5075272;28;1364;-74
2023/09/06 01:43:54;;;;;;;;;;;;;;;;;;5093315;28;1881;-74
2023/09/06 01:46:19;;;;;;;;;;;;;;;;;;5093123;28;1256;-74
2023/09/06 01:48:46;;;;;;;;;;;;;;;;;;5091927;28;878;-74
2023/09/06 01:51:13;;;;;;;;;;;;;;;;;;5091225;28;1226;-74
2023/09/06 01:53:38;;;;;;;;;;;;;;;;;;5093489;28;914;-75
2023/09/06 01:56:07;;;;;;;;;;;;;;;;;;5092038;28;856;-75
2023/09/06 01:58:32;;;;;;;;;;;;;;;;;;5092579;28;1346;-75
2023/09/06 02:00:58;;;;;;;;;;;;;;;;;;5093965;28;859;-75
2023/09/06 02:03:23;;;;;;;;;;;;;;;;;;5092647;28;2031;-75
2023/09/06 02:05:48;;;;;;;;;;;;;;;;;;5093265;28;1456;-75
2023/09/06 02:08:13;;;;;;;;;;;;;;;;;;5093705;28;1061;-75
2023/09/06 02:10:40;;;;;;;;;;;;;;;;;;5094095;28;872;-76
2023/09/06 02:13:05;;;;;;;;;;;;;;;;;;5093345;28;848;-75
2023/09/06 02:15:31;;;;;;;;;;;;;;;;;;5093034;28;1077;-75
2023/09/06 02:17:56;;;;;;;;;;;;;;;;;;5094145;28;899;-75
2023/09/06 02:20:22;;;;;;;;;;;;;;;;;;5092511;28;852;-75
2023/09/06 02:22:48;;;;;;;;;;;;;;;;;;5092992;28;1902;-75
2023/09/06 02:25:15;;;;;;;;;;;;;;;;;;5096102;28;856;-75
2023/09/06 02:27:40;;;;;;;;;;;;;;;;;;5091555;28;1471;-75
2023/09/06 02:30:06;;;;;;;;;;;;;;;;;;5092433;28;1125;-77
2023/09/06 02:32:32;;;;;;;;;;;;;;;;;;5093312;28;919;-75
2023/09/06 02:34:57;;;;;;;;;;;;;;;;;;5092092;28;1119;-75
2023/09/06 02:37:23;;;;;;;;;;;;;;;;;;5092934;28;883;-76
2023/09/06 02:39:48;;;;;;;;;;;;;;;;;;5093035;28;1051;-75
2023/09/06 02:42:13;;;;;;;;;;;;;;;;;;5073836;28;1886;-75
2023/09/06 02:44:38;;;;;;;;;;;;;;;;;;5093001;28;1290;-75
2023/09/06 02:47:08;;;;;;;;;;;;;;;;;;5074573;28;1219;-76
2023/09/06 02:49:34;;;;;;;;;;;;;;;;;;5090925;28;1260;-75
2023/09/06 02:51:59;;;;;;;;;;;;;;;;;;5092444;28;833;-75
2023/09/06 02:54:24;;;;;;;;;;;;;;;;;;5092407;28;915;-76
2023/09/06 02:56:49;;;;;;;;;;;;;;;;;;5092608;28;1018;-75
2023/09/06 02:59:15;;;;;;;;;;;;;;;;;;5091552;28;1162;-76
2023/09/06 03:01:44;;;;;;;;;;;;;;;;;;5091399;28;789;-76
2023/09/06 03:04:13;;;;;;;;;;;;;;;;;;5090763;28;1909;-75
2023/09/06 03:06:43;;;;;;;;;;;;;;;;;;5092866;28;907;-76
2023/09/06 03:09:09;;;;;;;;;;;;;;;;;;5090908;28;852;-75
2023/09/06 03:11:35;;;;;;;;;;;;;;;;;;5092726;28;824;-75
2023/09/06 03:14:02;;;;;;;;;;;;;;;;;;5092419;28;825;-75
2023/09/06 03:16:27;;;;;;;;;;;;;;;;;;5092508;28;864;-75
2023/09/06 03:18:54;;;;;;;;;;;;;;;;;;5092935;28;863;-76
2023/09/06 03:21:19;;;;;;;;;;;;;;;;;;5091857;28;896;-75
2023/09/06 03:23:45;;;;;;;;;;;;;;;;;;5093213;28;1947;-76
2023/09/06 03:26:11;;;;;;;;;;;;;;;;;;5092140;28;919;-75
2023/09/06 03:28:40;;;;;;;;;;;;;;;;;;5074435;28;1263;-75
2023/09/06 03:31:08;;;;;;;;;;;;;;;;;;5092086;28;844;-76
2023/09/06 03:33:35;;;;;;;;;;;;;;;;;;5091170;28;805;-75
2023/09/06 03:36:00;;;;;;;;;;;;;;;;;;5090831;28;1440;-75
2023/09/06 03:38:26;;;;;;;;;;;;;;;;;;5092375;28;856;-75
2023/09/06 03:40:51;;;;;;;;;;;;;;;;;;5081341;28;1200;-75
2023/09/06 03:43:19;;;;;;;;;;;;;;;;;;5098096;28;1918;-75
2023/09/06 03:45:45;;;;;;;;;;;;;;;;;;5101169;28;1207;-75
2023/09/06 03:48:12;;;;;;;;;;;;;;;;;;5103571;28;817;-75
2023/09/06 03:50:38;;;;;;;;;;;;;;;;;;5096760;28;840;-75
2023/09/06 03:53:04;;;;;;;;;;;;;;;;;;5099079;28;1173;-75
2023/09/06 03:55:31;;;;;;;;;;;;;;;;;;5107173;28;919;-75
2023/09/06 03:57:56;;;;;;;;;;;;;;;;;;5112843;28;777;-75
2023/09/06 04:00:26;;;;;;;;;;;;;;;;;;5112156;28;1136;-75
2023/09/06 04:02:53;;;;;;;;;;;;;;;;;;5116240;28;1902;-75
2023/09/06 04:05:22;;;;;;;;;;;;;;;;;;5107725;28;1226;-75
2023/09/06 04:07:49;;;;;;;;;;;;;;;;;;5108613;28;1163;-75
2023/09/06 04:10:21;;;;;;;;;;;;;;;;;;5101743;28;1151;-75
2023/09/06 04:12:47;;;;;;;;;;;;;;;;;;5098971;28;1179;-75
2023/09/06 04:15:15;;;;;;;;;;;;;;;;;;5098143;28;1217;-75
2023/09/06 04:17:40;;;;;;;;;;;;;;;;;;5095297;28;1274;-75
2023/09/06 04:20:18;;;;;;;;;;;;;;;;;;5114774;28;963;-75
2023/09/06 04:22:45;;;;;;;;;;;;;;;;;;5117630;28;1982;-75
2023/09/06 04:25:11;;;;;;;;;;;;;;;;;;5117693;28;938;-75
2023/09/06 04:27:36;;;;;;;;;;;;;;;;;;5116876;28;856;-75
2023/09/06 04:30:03;;;;;;;;;;;;;;;;;;5114958;28;1173;-75
2023/09/06 04:32:28;;;;;;;;;;;;;;;;;;5114727;28;832;-75
2023/09/06 04:34:53;;;;;;;;;;;;;;;;;;5114356;28;951;-75
2023/09/06 04:37:18;;;;;;;;;;;;;;;;;;5115230;28;900;-75
2023/09/06 04:39:44;;;;;;;;;;;;;;;;;;5115926;28;831;-75
2023/09/06 04:42:11;;;;;;;;;;;;;;;;;;5115871;28;1905;-75
2023/09/06 04:44:36;;;;;;;;;;;;;;;;;;5114143;28;1095;-75
2023/09/06 04:47:02;;;;;;;;;;;;;;;;;;5115395;28;1084;-75
2023/09/06 04:49:27;;;;;;;;;;;;;;;;;;5115393;28;863;-76
2023/09/06 04:51:52;;;;;;;;;;;;;;;;;;5114844;28;864;-75
2023/09/06 04:54:18;;;;;;;;;;;;;;;;;;5113466;28;1178;-75
2023/09/06 04:56:44;;;;;;;;;;;;;;;;;;5098591;28;1306;-75
2023/09/06 04:59:09;;;;;;;;;;;;;;;;;;5081201;28;1167;-75
2023/09/06 05:01:35;;;;;;;;;;;;;;;;;;5110059;28;1238;-75
2023/09/06 05:04:00;;;;;;;;;;;;;;;;;;5113960;28;1902;-75
2023/09/06 05:06:25;;;;;;;;;;;;;;;;;;5114974;28;928;-74
2023/09/06 05:08:51;;;;;;;;;;;;;;;;;;5110823;28;1277;-74
2023/09/06 05:11:16;;;;;;;;;;;;;;;;;;5099644;28;1152;-74
2023/09/06 05:13:41;;;;;;;;;;;;;;;;;;5102079;28;1140;-74
2023/09/06 05:16:08;;;;;;;;;;;;;;;;;;5101883;28;1163;-74
2023/09/06 05:18:33;;;;;;;;;;;;;;;;;;5101935;28;1111;-74
2023/09/06 05:21:05;;;;;;;;;;;;;;;;;;5094314;28;987;-74
2023/09/06 05:23:32;;;;;;;;;;;;;;;;;;5093388;28;1929;-74
2023/09/06 05:25:58;;;;;;;;;;;;;;;;;;5092772;28;1392;-74
2023/09/06 05:28:23;;;;;;;;;;;;;;;;;;5094724;28;856;-75
2023/09/06 05:30:49;;;;;;;;;;;;;;;;;;5093900;28;899;-74
2023/09/06 05:33:14;;;;;;;;;;;;;;;;;;5092264;28;883;-74
2023/09/06 05:35:41;;;;;;;;;;;;;;;;;;5094708;28;872;-74
2023/09/06 05:38:06;;;;;;;;;;;;;;;;;;5094349;28;884;-75
2023/09/06 05:40:33;;;;;;;;;;;;;;;;;;5092611;28;844;-74
2023/09/06 05:42:58;;;;;;;;;;;;;;;;;;5093922;28;1898;-74
2023/09/06 05:45:24;;;;;;;;;;;;;;;;;;5093176;28;1077;-74
2023/09/06 05:47:49;;;;;;;;;;;;;;;;;;5092588;28;1365;-74
2023/09/06 05:50:15;;;;;;;;;;;;;;;;;;5093750;28;899;-74
2023/09/06 05:52:40;;;;;;;;;;;;;;;;;;5092791;28;1559;-74
2023/09/06 05:55:06;;;;;;;;;;;;;;;;;;5093685;28;1242;-74
2023/09/06 05:57:32;;;;;;;;;;;;;;;;;;5092548;28;1129;-74
2023/09/06 05:59:57;;;;;;;;;;;;;;;;;;5093034;28;1249;-75
2023/09/06 06:02:24;;;;;;;;;;;;;;;;;;5092365;28;1972;-74
2023/09/06 06:04:49;;;;;;;;;;;;;;;;;;5094671;28;836;-74
2023/09/06 06:07:16;;;;;;;;;;;;;;;;;;5093860;28;1016;-75
2023/09/06 06:09:41;;;;;;;;;;;;;;;;;;5094316;28;848;-74
2023/09/06 06:12:06;;;;;;;;;;;;;;;;;;5094530;28;833;-74
2023/09/06 06:14:32;;;;;;;;;;;;;;;;;;5092724;28;1226;-74
2023/09/06 06:16:57;;;;;;;;;;;;;;;;;;5093784;28;938;-74
2023/09/06 06:19:23;;;;;;;;;;;;;;;;;;5092863;28;939;-74
2023/09/06 06:21:49;;;;;;;;;;;;;;;;;;5094504;28;891;-75
2023/09/06 06:24:14;;;;;;;;;;;;;;;;;;5092821;28;1967;-74
2023/09/06 06:26:39;;;;;;;;;;;;;;;;;;5093275;28;848;-74
2023/09/06 06:29:04;;;;;;;;;;;;;;;;;;5093585;28;1117;-74
2023/09/06 06:31:30;;;;;;;;;;;;;;;;;;5092990;28;946;-74
2023/09/06 06:33:55;;;;;;;;;;;;;;;;;;5094160;28;982;-74
2023/09/06 06:36:21;;;;;;;;;;;;;;;;;;5092929;28;991;-74
2023/09/06 06:38:46;;;;;;;;;;;;;;;;;;5093300;28;911;-74
2023/09/06 06:41:22;;;;;;;;;;;;;;;;;;5091943;28;1321;-74
2023/09/06 06:43:47;;;;;;;;;;;;;;;;;;5090938;28;1910;-75
2023/09/06 06:46:26;;;;;;;;;;;;;;;;;;5091491;28;1315;-75
2023/09/06 06:48:52;;;;;;;;;;;;;;;;;;5093066;28;923;-74
2023/09/06 06:51:17;;;;;;;;;;;;;;;;;;5092768;28;895;-74
2023/09/06 06:53:42;;;;;;;;;;;;;;;;;;5092077;28;916;-74
2023/09/06 06:56:07;;;;;;;;;;;;;;;;;;5092509;28;1035;-74
2023/09/06 06:58:32;;;;;;;;;;;;;;;;;;5090652;28;1219;-74
2023/09/06 07:01:00;;;;;;;;;;;;;;;;;;5094218;28;1183;-75
2023/09/06 07:03:25;;;;;;;;;;;;;;;;;;5090922;28;1910;-74
2023/09/06 07:05:50;;;;;;;;;;;;;;;;;;5090265;28;1372;-74
2023/09/06 07:08:15;;;;;;;;;;;;;;;;;;5092966;28;864;-74
2023/09/06 07:10:40;;;;;;;;;;;;;;;;;;5092278;28;923;-74
2023/09/06 07:13:06;;;;;;;;;;;;;;;;;;5090745;28;797;-75
2023/09/06 07:15:31;;;;;;;;;;;;;;;;;;5096785;28;1175;-74
2023/09/06 07:18:01;;;;;;;;;;;;;;;;;;5074958;28;1126;-75
2023/09/06 07:20:26;;;;;;;;;;;;;;;;;;5090595;28;910;-74
2023/09/06 07:22:51;;;;;;;;;;;;;;;;;;5090449;28;1980;-74
2023/09/06 07:25:17;;;;;;;;;;;;;;;;;;5091912;28;915;-74
2023/09/06 07:27:43;;;;;;;;;;;;;;;;;;5091411;28;1013;-74
2023/09/06 07:30:09;;;;;;;;;;;;;;;;;;5091889;28;918;-74
2023/09/06 07:32:34;;;;;;;;;;;;;;;;;;5073058;28;2118;-74
2023/09/06 07:34:59;;;;;;;;;;;;;;;;;;5074012;28;1199;-74
2023/09/06 07:37:25;;;;;;;;;;;;;;;;;;5090490;28;1351;-74
2023/09/06 07:39:51;;;;;;;;;;;;;;;;;;5091962;28;928;-74
2023/09/06 07:42:17;;;;;;;;;;;;;;;;;;5091315;28;1981;-75
2023/09/06 07:44:42;;;;;;;;;;;;;;;;;;5090119;28;1373;-75
2023/09/06 07:47:07;;;;;;;;;;;;;;;;;;5092085;28;1396;-75
2023/09/06 07:49:32;;;;;;;;;;;;;;;;;;5073831;28;1209;-75
2023/09/06 07:51:59;;;;;;;;;;;;;;;;;;5092199;28;919;-75
2023/09/06 07:54:24;;;;;;;;;;;;;;;;;;5090827;28;1135;-75
2023/09/06 07:56:49;;;;;;;;;;;;;;;;;;5092139;28;915;-75
2023/09/06 07:59:16;;;;;;;;;;;;;;;;;;5092222;28;816;-68
2023/09/06 08:01:42;;;;;;;;;;;;;;;;;;5090465;28;1675;-74
2023/09/06 08:04:10;;;;;;;;;;;;;;;;;;5072798;28;1918;-73
2023/09/06 08:06:35;;;;;;;;;;;;;;;;;;5090658;28;824;-73
2023/09/06 08:09:01;;;;;;;;;;;;;;;;;;5090610;28;1314;-73
2023/09/06 08:11:26;;;;;;;;;;;;;;;;;;5089874;28;911;-73
2023/09/06 08:13:52;;;;;;;;;;;;;;;;;;5071339;28;1355;-72
2023/09/06 08:16:19;;;;;;;;;;;;;;;;;;5097047;28;1626;-72
2023/09/06 08:18:46;;;;;;;;;;;;;;;;;;5099794;28;1202;-72
2023/09/06 08:21:11;;;;;;;;;;;;;;;;;;5102120;28;1471;-72
2023/09/06 08:23:37;;;;;;;;;;;;;;;;;;5089532;28;1897;-72
2023/09/06 08:26:03;;;;;;;;;;;;;;;;;;5090389;28;937;-73
2023/09/06 08:28:29;;;;;;;;;;;;;;;;;;5091586;28;903;-72
2023/09/06 08:30:54;;;;;;;;;;;;;;;;;;5092776;28;994;-72
2023/09/06 08:33:19;;;;;;;;;;;;;;;;;;5091168;28;829;-72
2023/09/06 08:35:45;;;;;;;;;;;;;;;;;;5089267;28;1049;-72
2023/09/06 08:38:10;;;;;;;;;;;;;;;;;;5090782;28;891;-72
2023/09/06 08:40:35;;;;;;;;;;;;;;;;;;5090457;28;840;-72
2023/09/06 08:43:03;;;;;;;;;;;;;;;;;;5089397;28;1875;-72
2023/09/06 08:45:29;;;;;;;;;;;;;;;;;;5089953;28;1334;-72
2023/09/06 08:47:55;;;;;;;;;;;;;;;;;;5089181;28;1340;-72
2023/09/06 08:50:20;;;;;;;;;;;;;;;;;;5090156;28;817;-72
2023/09/06 08:52:46;;;;;;;;;;;;;;;;;;5090330;28;1018;-72
2023/09/06 08:55:11;;;;;;;;;;;;;;;;;;5090865;28;860;-72
2023/09/06 08:57:38;;;;;;;;;;;;;;;;;;5089273;28;1409;-72
2023/09/06 09:00:03;;;;;;;;;;;;;;;;;;5090580;28;907;-72
2023/09/06 09:02:29;;;;;;;;;;;;;;;;;;5090633;28;1918;-72
2023/09/06 09:04:54;;;;;;;;;;;;;;;;;;5090031;28;821;-72
2023/09/06 09:07:20;;;;;;;;;;;;;;;;;;5091390;28;1260;-72
2023/09/06 09:10:01;;;;;;;;;;;;;;;;;;5092867;28;928;-72
2023/09/06 09:12:27;;;;;;;;;;;;;;;;;;5094546;28;864;-72
2023/09/06 09:14:54;;;;;;;;;;;;;;;;;;5093053;28;960;-72
2023/09/06 09:17:20;;;;;;;;;;;;;;;;;;5093847;28;840;-72
2023/09/06 09:19:49;;;;;;;;;;;;;;;;;;5093087;28;855;-72
2023/09/06 09:22:15;;;;;;;;;;;;;;;;;;5092699;28;1878;-72
2023/09/06 09:24:40;;;;;;;;;;;;;;;;;;5093336;28;919;-72
2023/09/06 09:27:05;;;;;;;;;;;;;;;;;;5092774;28;1171;-72
2023/09/06 09:29:31;;;;;;;;;;;;;;;;;;5094029;28;935;-72
2023/09/06 09:32:00;;;;;;;;;;;;;;;;;;5094720;28;785;-72
2023/09/06 09:34:25;;;;;;;;;;;;;;;;;;5093447;28;1289;-72
2023/09/06 09:36:51;;;;;;;;;;;;;;;;;;5092518;28;1146;-72
2023/09/06 09:39:18;;;;;;;;;;;;;;;;;;5093003;28;1336;-72
2023/09/06 09:41:43;;;;;;;;;;;;;;;;;;5094163;28;897;-72
2023/09/06 09:44:13;;;;;;;;;;;;;;;;;;5093801;28;1897;-73
2023/09/06 09:46:39;;;;;;;;;;;;;;;;;;5093297;28;1203;-72
2023/09/06 09:49:07;;;;;;;;;;;;;;;;;;5093996;28;848;-74
2023/09/06 09:51:34;;;;;;;;;;;;;;;;;;5091860;28;1279;-73
2023/09/06 09:53:59;;;;;;;;;;;;;;;;;;5093920;28;852;-73
2023/09/06 09:56:25;;;;;;;;;;;;;;;;;;5093617;28;931;-73
2023/09/06 09:58:51;;;;;;;;;;;;;;;;;;5092488;28;959;-73
2023/09/06 10:01:17;;;;;;;;;;;;;;;;;;5093479;28;900;-72
2023/09/06 10:03:44;;;;;;;;;;;;;;;;;;5093472;28;1930;-72
2023/09/06 10:06:10;;;;;;;;;;;;;;;;;;5091704;28;1063;-72
2023/09/06 10:08:36;;;;;;;;;;;;;;;;;;5091377;28;1222;-73
2023/09/06 10:11:05;;;;;;;;;;;;;;;;;;5091445;28;1373;-72
2023/09/06 10:13:32;;;;;;;;;;;;;;;;;;5091098;28;1269;-72
2023/09/06 10:15:58;;;;;;;;;;;;;;;;;;5092472;28;1014;-73
2023/09/06 10:18:23;;;;;;;;;;;;;;;;;;5092046;28;837;-72
2023/09/06 10:20:48;;;;;;;;;;;;;;;;;;5090899;28;1190;-72
2023/09/06 10:23:14;;;;;;;;;;;;;;;;;;5091166;28;1909;-72
2023/09/06 10:25:40;;;;;;;;;;;;;;;;;;5092192;28;998;-72
2023/09/06 10:28:05;;;;;;;;;;;;;;;;;;5089187;28;876;-72
2023/09/06 10:30:48;;;;;;;;;;;;;;;;;;5090285;28;943;-72
2023/09/06 10:33:28;;;;;;;;;;;;;;;;;;5091120;28;894;-72
2023/09/06 10:35:57;;;;;;;;;;;;;;;;;;5090397;28;1010;-72
2023/09/06 10:38:22;;;;;;;;;;;;;;;;;;5088592;28;1445;-72
2023/09/06 10:40:49;;;;;;;;;;;;;;;;;;5090276;28;995;-72
2023/09/06 10:43:14;;;;;;;;;;;;;;;;;;5090906;28;1945;-73
2023/09/06 10:45:43;;;;;;;;;;;;;;;;;;5091555;28;1396;-72
2023/09/06 10:48:09;;;;;;;;;;;;;;;;;;5112281;28;852;-72
2023/09/06 10:50:34;;;;;;;;;;;;;;;;;;5112237;28;840;-72
2023/09/06 10:53:01;;;;;;;;;;;;;;;;;;5110805;28;892;-72
2023/09/06 10:55:43;;;;;;;;;;;;;;;;;;5111678;28;894;-72
2023/09/06 10:58:09;;;;;;;;;;;;;;;;;;5111935;28;919;-72
2023/09/06 11:00:34;;;;;;;;;;;;;;;;;;5112338;28;820;-73
2023/09/06 11:03:17;;;;;;;;;;;;;;;;;;5112072;28;1906;-72
2023/09/06 11:05:44;;;;;;;;;;;;;;;;;;5110155;28;1300;-72
2023/09/06 11:08:21;;;;;;;;;;;;;;;;;;5112294;28;841;-72
2023/09/06 11:10:47;;;;;;;;;;;;;;;;;;5110648;28;1412;-72
2023/09/06 11:13:14;;;;;;;;;;;;;;;;;;5093423;28;1235;-72
2023/09/06 11:15:40;;;;;;;;;;;;;;;;;;5111870;28;824;-72
2023/09/06 11:18:05;;;;;;;;;;;;;;;;;;5112736;28;812;-73
2023/09/06 11:20:31;;;;;;;;;;;;;;;;;;5112403;28;923;-73
2023/09/06 11:23:00;;;;;;;;;;;;;;;;;;5113091;27;1886;-72
2023/09/06 11:25:26;;;;;;;;;;;;;;;;;;5094157;28;1365;-72
2023/09/06 11:27:55;;;;;;;;;;;;;;;;;;5113019;28;931;-72
2023/09/06 11:30:22;;;;;;;;;;;;;;;;;;5111804;28;875;-72
2023/09/06 11:32:54;;;;;;;;;;;;;;;;;;5112240;28;918;-72
2023/09/06 11:35:22;;;;;;;;;;;;;;;;;;5111578;28;1127;-72
2023/09/06 11:37:52;;;;;;;;;;;;;;;;;;5106081;27;1190;-73
2023/09/06 11:40:20;;;;;;;;;;;;;;;;;;5102135;28;1167;-72
2023/09/06 11:42:48;;;;;;;;;;;;;;;;;;5111568;28;1889;-72
2023/09/06 11:45:17;;;;;;;;;;;;;;;;;;5111286;28;1348;-71
2023/09/06 11:47:42;;;;;;;;;;;;;;;;;;5111437;28;931;-72
2023/09/06 11:50:09;;;;;;;;;;;;;;;;;;5111260;28;920;-72
2023/09/06 11:52:34;;;;;;;;;;;;;;;;;;5109811;28;1427;-72
2023/09/06 11:55:09;;;;;;;;;;;;;;;;;;5111281;28;812;-72
2023/09/06 11:57:38;;;;;;;;;;;;;;;;;;5109707;28;930;-72
2023/09/06 12:00:28;;;;;;;;;;;;;;;;;;5111059;28;637;-72
2023/09/06 12:03:01;;;;;;;;;;;;;;;;;;5109930;28;1897;-72
2023/09/06 12:05:26;;;;;;;;;;;;;;;;;;5110859;28;983;-72
2023/09/06 12:07:54;;;;;;;;;;;;;;;;;;5104406;28;1241;-72
2023/09/06 12:10:21;;;;;;;;;;;;;;;;;;5088388;28;1313;-72
2023/09/06 12:12:47;;;;;;;;;;;;;;;;;;5091510;28;1199;-72
2023/09/06 12:15:20;;;;;;;;;;;;;;;;;;5089380;28;1171;-73
2023/09/06 12:17:49;;;;;;;;;;;;;;;;;;5086759;28;1203;-73
2023/09/06 12:20:18;;;;;;;;;;;;;;;;;;5087663;28;1163;-73
2023/09/06 12:22:44;;;;;;;;;;;;;;;;;;5107354;28;1977;-72
2023/09/06 12:25:11;;;;;;;;;;;;;;;;;;5109677;28;1166;-72
2023/09/06 12:27:36;;;;;;;;;;;;;;;;;;5111146;28;872;-72
2023/09/06 12:30:02;;;;;;;;;;;;;;;;;;5092447;28;1214;-72
2023/09/06 12:32:31;;;;;;;;;;;;;;;;;;5109927;28;1097;-73
2023/09/06 12:34:56;;;;;;;;;;;;;;;;;;5110185;28;899;-74
2023/09/06 12:37:21;;;;;;;;;;;;;;;;;;5109521;28;908;-73
2023/09/06 12:39:47;;;;;;;;;;;;;;;;;;5110726;28;844;-73
2023/09/06 12:42:12;;;;;;;;;;;;;;;;;;5113245;28;2287;-74
2023/09/06 12:44:37;;;;;;;;;;;;;;;;;;5115066;28;1046;-74
2023/09/06 12:47:02;;;;;;;;;;;;;;;;;;5114492;28;1211;-73
2023/09/06 12:49:28;;;;;;;;;;;;;;;;;;5096825;28;1343;-74
2023/09/06 12:51:53;;;;;;;;;;;;;;;;;;5103000;28;1155;-73
2023/09/06 12:54:18;;;;;;;;;;;;;;;;;;5073347;28;1349;-73
2023/09/06 12:56:43;;;;;;;;;;;;;;;;;;5110591;28;1167;-73
2023/09/06 12:59:09;;;;;;;;;;;;;;;;;;5115066;28;888;-74
2023/09/06 13:01:34;;;;;;;;;;;;;;;;;;5113733;28;1282;-73
2023/09/06 13:03:59;;;;;;;;;;;;;;;;;;5113791;28;1976;-74
2023/09/06 13:06:25;;;;;;;;;;;;;;;;;;5114446;28;1037;-73
2023/09/06 13:08:50;;;;;;;;;;;;;;;;;;5114602;28;918;-74
2023/09/06 13:11:16;;;;;;;;;;;;;;;;;;5115060;28;832;-74
2023/09/06 13:13:41;;;;;;;;;;;;;;;;;;5113595;28;821;-74
2023/09/06 13:16:07;;;;;;;;;;;;;;;;;;5113516;28;1531;-74
2023/09/06 13:18:33;;;;;;;;;;;;;;;;;;5114318;28;844;-74
2023/09/06 13:20:59;;;;;;;;;;;;;;;;;;5114786;28;897;-74
2023/09/06 13:23:24;;;;;;;;;;;;;;;;;;5113228;28;1966;-74
2023/09/06 13:25:49;;;;;;;;;;;;;;;;;;5114290;28;1002;-74
2023/09/06 13:28:15;;;;;;;;;;;;;;;;;;5114505;28;876;-74
2023/09/06 13:30:40;;;;;;;;;;;;;;;;;;5114057;28;899;-74
2023/09/06 13:33:05;;;;;;;;;;;;;;;;;;5114647;28;904;-74
2023/09/06 13:35:31;;;;;;;;;;;;;;;;;;5114585;28;994;-74
2023/09/06 13:37:56;;;;;;;;;;;;;;;;;;5114904;28;863;-74
2023/09/06 13:40:22;;;;;;;;;;;;;;;;;;5113563;28;820;-74
2023/09/06 13:42:47;;;;;;;;;;;;;;;;;;5114301;28;1898;-74
2023/09/06 13:45:12;;;;;;;;;;;;;;;;;;5096361;28;1229;-74
2023/09/06 13:47:38;;;;;;;;;;;;;;;;;;5112570;28;1499;-74
2023/09/06 13:50:04;;;;;;;;;;;;;;;;;;5113413;28;1214;-74
2023/09/06 13:52:30;;;;;;;;;;;;;;;;;;5112947;28;828;-74
2023/09/06 13:54:55;;;;;;;;;;;;;;;;;;5113983;28;852;-73
2023/09/06 13:57:21;;;;;;;;;;;;;;;;;;5113393;28;1846;-74
2023/09/06 13:59:46;;;;;;;;;;;;;;;;;;5112130;28;668;-74
2023/09/06 14:02:11;;;;;;;;;;;;;;;;;;5113273;28;886;-74
2023/09/06 14:04:37;;;;;;;;;;;;;;;;;;5111279;28;1977;-74
2023/09/06 14:07:02;;;;;;;;;;;;;;;;;;5113240;28;951;-74
2023/09/06 14:09:27;;;;;;;;;;;;;;;;;;5111845;28;1249;-74
2023/09/06 14:11:53;;;;;;;;;;;;;;;;;;5111306;28;947;-74
2023/09/06 14:14:18;;;;;;;;;;;;;;;;;;5111426;28;1221;-74
2023/09/06 14:16:44;;;;;;;;;;;;;;;;;;5112386;28;951;-74
2023/09/06 14:19:11;;;;;;;;;;;;;;;;;;5111717;28;1257;-74
2023/09/06 14:21:38;;;;;;;;;;;;;;;;;;5112485;28;886;-74
2023/09/06 14:24:03;;;;;;;;;;;;;;;;;;5113450;28;1897;-75
2023/09/06 14:26:29;;;;;;;;;;;;;;;;;;5112956;28;906;-75
2023/09/06 14:28:55;;;;;;;;;;;;;;;;;;5111169;28;1190;-74
2023/09/06 14:31:20;;;;;;;;;;;;;;;;;;5111329;28;927;-74
2023/09/06 14:33:45;;;;;;;;;;;;;;;;;;5112295;28;761;-74
2023/09/06 14:36:11;;;;;;;;;;;;;;;;;;5112349;28;855;-74
2023/09/06 14:38:36;;;;;;;;;;;;;;;;;;5112688;28;844;-74
2023/09/06 14:41:03;;;;;;;;;;;;;;;;;;5112702;28;1000;-74
2023/09/06 14:43:28;;;;;;;;;;;;;;;;;;5094247;28;1973;-75
2023/09/06 14:46:00;;;;;;;;;;;;;;;;;;5110840;28;1460;-74
2023/09/06 14:48:26;;;;;;;;;;;;;;;;;;5103001;28;1364;-74
2023/09/06 14:51:00;;;;;;;;;;;;;;;;;;5109110;28;1160;-74
2023/09/06 14:53:26;;;;;;;;;;;;;;;;;;5111166;28;1288;-75
2023/09/06 14:55:51;;;;;;;;;;;;;;;;;;5112552;28;889;-72
2023/09/06 14:58:16;;;;;;;;;;;;;;;;;;5112018;28;843;-73
2023/09/06 15:00:42;;;;;;;;;;;;;;;;;;5112358;28;832;-74
2023/09/06 15:03:07;;;;;;;;;;;;;;;;;;5112565;28;1963;-73
2023/09/06 15:05:33;;;;;;;;;;;;;;;;;;5110251;28;1519;-73
2023/09/06 15:08:00;;;;;;;;;;;;;;;;;;5112504;28;883;-73
2023/09/06 15:10:31;;;;;;;;;;;;;;;;;;5112538;28;954;-74
2023/09/06 15:12:56;;;;;;;;;;;;;;;;;;5112116;28;954;-74
2023/09/06 15:15:22;;;;;;;;;;;;;;;;;;5110651;28;986;-73
2023/09/06 15:17:47;;;;;;;;;;;;;;;;;;5109931;28;840;-74
2023/09/06 15:20:12;;;;;;;;;;;;;;;;;;5109031;28;790;-74
2023/09/06 15:22:40;;;;;;;;;;;;;;;;;;5107548;28;1959;-74
2023/09/06 15:25:05;;;;;;;;;;;;;;;;;;5108967;28;939;-73
2023/09/06 15:27:31;;;;;;;;;;;;;;;;;;5108967;28;1186;-73
2023/09/06 15:29:56;;;;;;;;;;;;;;;;;;5092990;28;1401;-73
2023/09/06 15:32:21;;;;;;;;;;;;;;;;;;5109806;28;841;-73
2023/09/06 15:34:47;;;;;;;;;;;;;;;;;;5111478;28;852;-74
2023/09/06 15:37:12;;;;;;;;;;;;;;;;;;5111426;28;1054;-73
2023/09/06 15:39:40;;;;;;;;;;;;;;;;;;5111450;28;829;-73
2023/09/06 15:42:06;;;;;;;;;;;;;;;;;;5112467;28;976;-73
2023/09/06 15:44:31;;;;;;;;;;;;;;;;;;5110003;28;1893;-74
2023/09/06 15:46:58;;;;;;;;;;;;;;;;;;5111603;28;1250;-73
2023/09/06 15:49:24;;;;;;;;;;;;;;;;;;5112421;28;931;-73
2023/09/06 15:51:49;;;;;;;;;;;;;;;;;;5110301;28;1174;-73
2023/09/06 15:54:14;;;;;;;;;;;;;;;;;;5110349;28;1018;-74
2023/09/06 15:56:42;;;;;;;;;;;;;;;;;;5109591;28;1213;-73
2023/09/06 15:59:08;;;;;;;;;;;;;;;;;;5110175;28;1376;-73
2023/09/06 16:01:33;;;;;;;;;;;;;;;;;;5110249;28;922;-73
2023/09/06 16:03:58;;;;;;;;;;;;;;;;;;5111292;28;1911;-73
2023/09/06 16:06:25;;;;;;;;;;;;;;;;;;5111058;28;871;-73
2023/09/06 16:08:51;;;;;;;;;;;;;;;;;;5110418;28;1061;-73
2023/09/06 16:11:16;;;;;;;;;;;;;;;;;;5110547;28;1002;-73
2023/09/06 16:13:41;;;;;;;;;;;;;;;;;;5091778;28;1186;-74
2023/09/06 16:16:06;;;;;;;;;;;;;;;;;;5112910;28;860;-73
2023/09/06 16:18:32;;;;;;;;;;;;;;;;;;5113093;28;1222;-74
2023/09/06 16:20:57;;;;;;;;;;;;;;;;;;5113552;28;1190;-74
2023/09/06 16:23:22;;;;;;;;;;;;;;;;;;5113677;28;1910;-73
2023/09/06 16:25:48;;;;;;;;;;;;;;;;;;5095897;28;1179;-73
2023/09/06 16:28:13;;;;;;;;;;;;;;;;;;5105146;28;1277;-73
2023/09/06 16:30:40;;;;;;;;;;;;;;;;;;5093242;28;1145;-73
2023/09/06 16:33:05;;;;;;;;;;;;;;;;;;5103139;28;1131;-73
2023/09/06 16:35:30;;;;;;;;;;;;;;;;;;5095743;28;1224;-73
2023/09/06 16:37:58;;;;;;;;;;;;;;;;;;5091761;28;1114;-74
2023/09/06 16:40:24;;;;;;;;;;;;;;;;;;5093058;28;1249;-73
2023/09/06 16:42:52;;;;;;;;;;;;;;;;;;5093465;28;1889;-73
2023/09/06 16:45:18;;;;;;;;;;;;;;;;;;5094145;28;932;-73
2023/09/06 16:47:44;;;;;;;;;;;;;;;;;;5091903;28;1155;-73
2023/09/06 16:50:09;;;;;;;;;;;;;;;;;;5094548;28;903;-73
2023/09/06 16:52:37;;;;;;;;;;;;;;;;;;5094150;28;797;-74
2023/09/06 16:55:03;;;;;;;;;;;;;;;;;;5076472;28;805;-72
2023/09/06 16:57:28;;;;;;;;;;;;;;;;;;5092425;28;1176;-73
2023/09/06 16:59:53;;;;;;;;;;;;;;;;;;5075799;28;1568;-73
2023/09/06 17:02:19;;;;;;;;;;;;;;;;;;5092833;28;879;-73
2023/09/06 17:04:45;;;;;;;;;;;;;;;;;;5093199;28;1929;-73